sensor_id;sensor_type;location;lat;lon;timestamp;pressure;altitude;pressure_sealevel;temperature
78859;BMP280;68210;52.032;4.634;2024-01-27T00:01:19;103239.16;;;6.15
78859;BMP280;68210;52.032;4.634;2024-01-27T00:03:19;103237.28;;;6.21
78859;BMP280;68210;52.032;4.634;2024-01-27T00:05:19;103234.88;;;6.19
78859;BMP280;68210;52.032;4.634;2024-01-27T00:07:20;103231.63;;;6.17
78859;BMP280;68210;52.032;4.634;2024-01-27T00:09:20;103241.06;;;6.20
78859;BMP280;68210;52.032;4.634;2024-01-27T00:11:20;103244.53;;;6.15
78859;BMP280;68210;52.032;4.634;2024-01-27T00:13:23;103241.28;;;6.13
78859;BMP280;68210;52.032;4.634;2024-01-27T00:15:24;103246.16;;;6.11
78859;BMP280;68210;52.032;4.634;2024-01-27T00:17:24;103243.63;;;6.00
78859;BMP280;68210;52.032;4.634;2024-01-27T00:19:28;103244.50;;;6.06
78859;BMP280;68210;52.032;4.634;2024-01-27T00:21:29;103247.22;;;6.06
78859;BMP280;68210;52.032;4.634;2024-01-27T00:23:29;103255.81;;;6.07
78859;BMP280;68210;52.032;4.634;2024-01-27T00:25:29;103244.00;;;6.08
78859;BMP280;68210;52.032;4.634;2024-01-27T00:27:30;103243.44;;;6.06
78859;BMP280;68210;52.032;4.634;2024-01-27T00:29:30;103252.25;;;5.97
78859;BMP280;68210;52.032;4.634;2024-01-27T00:31:31;103240.38;;;5.93
78859;BMP280;68210;52.032;4.634;2024-01-27T00:33:31;103240.28;;;5.74
78859;BMP280;68210;52.032;4.634;2024-01-27T00:35:31;103240.63;;;5.87
78859;BMP280;68210;52.032;4.634;2024-01-27T00:37:32;103240.38;;;5.93
78859;BMP280;68210;52.032;4.634;2024-01-27T00:39:32;103237.50;;;6.05
78859;BMP280;68210;52.032;4.634;2024-01-27T00:41:33;103238.84;;;6.07
78859;BMP280;68210;52.032;4.634;2024-01-27T00:43:33;103239.13;;;6.06
78859;BMP280;68210;52.032;4.634;2024-01-27T00:45:33;103246.69;;;6.13
78859;BMP280;68210;52.032;4.634;2024-01-27T00:47:34;103247.75;;;6.12
78859;BMP280;68210;52.032;4.634;2024-01-27T00:49:34;103253.72;;;6.14
78859;BMP280;68210;52.032;4.634;2024-01-27T00:51:34;103260.16;;;6.13
78859;BMP280;68210;52.032;4.634;2024-01-27T00:53:35;103260.69;;;6.06
78859;BMP280;68210;52.032;4.634;2024-01-27T00:55:35;103261.16;;;6.03
78859;BMP280;68210;52.032;4.634;2024-01-27T00:57:37;103262.53;;;6.05
78859;BMP280;68210;52.032;4.634;2024-01-27T00:59:40;103270.31;;;6.02
78859;BMP280;68210;52.032;4.634;2024-01-27T01:01:41;103274.13;;;6.06
78859;BMP280;68210;52.032;4.634;2024-01-27T01:03:41;103272.69;;;5.93
78859;BMP280;68210;52.032;4.634;2024-01-27T01:05:41;103254.13;;;5.97
78859;BMP280;68210;52.032;4.634;2024-01-27T01:07:42;103254.13;;;5.97
78859;BMP280;68210;52.032;4.634;2024-01-27T01:09:42;103257.28;;;5.84
78859;BMP280;68210;52.032;4.634;2024-01-27T01:11:43;103251.47;;;6.02
78859;BMP280;68210;52.032;4.634;2024-01-27T01:13:43;103255.78;;;6.03
78859;BMP280;68210;52.032;4.634;2024-01-27T01:15:43;103243.97;;;6.04
78859;BMP280;68210;52.032;4.634;2024-01-27T01:17:44;103243.97;;;6.04
78859;BMP280;68210;52.032;4.634;2024-01-27T01:19:44;103248.25;;;6.05
78859;BMP280;68210;52.032;4.634;2024-01-27T01:21:45;103258.75;;;6.01
78859;BMP280;68210;52.032;4.634;2024-01-27T01:23:45;103255.50;;;5.99
78859;BMP280;68210;52.032;4.634;2024-01-27T01:25:45;103267.34;;;5.98
78859;BMP280;68210;52.032;4.634;2024-01-27T01:27:46;103257.41;;;6.04
78859;BMP280;68210;52.032;4.634;2024-01-27T01:29:46;103252.59;;;6.06
78859;BMP280;68210;52.032;4.634;2024-01-27T01:31:47;103260.09;;;5.99
78859;BMP280;68210;52.032;4.634;2024-01-27T01:33:47;103262.59;;;6.15
78859;BMP280;68210;52.032;4.634;2024-01-27T01:35:47;103251.78;;;6.10
78859;BMP280;68210;52.032;4.634;2024-01-27T01:37:48;103261.50;;;6.16
78859;BMP280;68210;52.032;4.634;2024-01-27T01:39:48;103257.16;;;6.05
78859;BMP280;68210;52.032;4.634;2024-01-27T01:41:49;103260.69;;;6.06
78859;BMP280;68210;52.032;4.634;2024-01-27T01:43:49;103251.50;;;6.06
78859;BMP280;68210;52.032;4.634;2024-01-27T01:45:49;103252.84;;;6.04
78859;BMP280;68210;52.032;4.634;2024-01-27T01:47:50;103254.94;;;5.97
78859;BMP280;68210;52.032;4.634;2024-01-27T01:49:52;103251.41;;;5.87
78859;BMP280;68210;52.032;4.634;2024-01-27T01:51:53;103254.63;;;5.89
78859;BMP280;68210;52.032;4.634;2024-01-27T01:53:58;103261.34;;;5.86
78859;BMP280;68210;52.032;4.634;2024-01-27T01:55:58;103258.91;;;5.85
78859;BMP280;68210;52.032;4.634;2024-01-27T01:57:58;103262.66;;;5.84
78859;BMP280;68210;52.032;4.634;2024-01-27T01:59:59;103263.72;;;5.78
78859;BMP280;68210;52.032;4.634;2024-01-27T02:01:59;103262.66;;;5.79
78859;BMP280;68210;52.032;4.634;2024-01-27T02:04:00;103271.50;;;5.75
78859;BMP280;68210;52.032;4.634;2024-01-27T02:06:00;103278.44;;;5.71
78859;BMP280;68210;52.032;4.634;2024-01-27T02:08:00;103272.47;;;5.64
78859;BMP280;68210;52.032;4.634;2024-01-27T02:10:05;103288.84;;;5.62
78859;BMP280;68210;52.032;4.634;2024-01-27T02:12:09;103285.88;;;5.59
78859;BMP280;68210;52.032;4.634;2024-01-27T02:14:09;103281.06;;;5.61
78859;BMP280;68210;52.032;4.634;2024-01-27T02:16:09;103266.69;;;5.50
78859;BMP280;68210;52.032;4.634;2024-01-27T02:18:10;103270.97;;;5.46
78859;BMP280;68210;52.032;4.634;2024-01-27T02:20:10;103271.47;;;5.43
78859;BMP280;68210;52.032;4.634;2024-01-27T02:22:11;103280.66;;;5.47
78859;BMP280;68210;52.032;4.634;2024-01-27T02:24:11;103277.97;;;5.47
78859;BMP280;68210;52.032;4.634;2024-01-27T02:26:11;103275.81;;;5.44
78859;BMP280;68210;52.032;4.634;2024-01-27T02:28:12;103281.16;;;5.40
78859;BMP280;68210;52.032;4.634;2024-01-27T02:30:15;103280.97;;;5.51
78859;BMP280;68210;52.032;4.634;2024-01-27T02:32:17;103275.84;;;5.49
78859;BMP280;68210;52.032;4.634;2024-01-27T02:34:17;103277.97;;;5.47
78859;BMP280;68210;52.032;4.634;2024-01-27T02:36:17;103276.84;;;5.43
78859;BMP280;68210;52.032;4.634;2024-01-27T02:38:18;103270.38;;;5.40
78859;BMP280;68210;52.032;4.634;2024-01-27T02:40:18;103278.16;;;5.36
78859;BMP280;68210;52.032;4.634;2024-01-27T02:42:18;103277.09;;;5.37
78859;BMP280;68210;52.032;4.634;2024-01-27T02:44:19;103273.03;;;5.35
78859;BMP280;68210;52.032;4.634;2024-01-27T02:46:19;103273.25;;;5.28
78859;BMP280;68210;52.032;4.634;2024-01-27T02:48:19;103265.22;;;5.33
78859;BMP280;68210;52.032;4.634;2024-01-27T02:50:20;103265.47;;;5.32
78859;BMP280;68210;52.032;4.634;2024-01-27T02:52:20;103263.88;;;5.36
78859;BMP280;68210;52.032;4.634;2024-01-27T02:54:20;103272.56;;;5.43
78859;BMP280;68210;52.032;4.634;2024-01-27T02:56:21;103273.63;;;5.42
78859;BMP280;68210;52.032;4.634;2024-01-27T02:58:21;103270.91;;;5.37
78859;BMP280;68210;52.032;4.634;2024-01-27T03:00:22;103275.75;;;5.40
78859;BMP280;68210;52.032;4.634;2024-01-27T03:02:22;103284.66;;;5.14
78859;BMP280;68210;52.032;4.634;2024-01-27T03:04:23;103278.13;;;5.05
78859;BMP280;68210;52.032;4.634;2024-01-27T03:06:23;103289.78;;;5.15
78859;BMP280;68210;52.032;4.634;2024-01-27T03:08:24;103279.66;;;4.96
78859;BMP280;68210;52.032;4.634;2024-01-27T03:10:24;103290.91;;;4.93
78859;BMP280;68210;52.032;4.634;2024-01-27T03:12:25;103298.03;;;5.04
78859;BMP280;68210;52.032;4.634;2024-01-27T03:14:25;103286.84;;;4.91
78859;BMP280;68210;52.032;4.634;2024-01-27T03:16:26;103283.34;;;4.90
78859;BMP280;68210;52.032;4.634;2024-01-27T03:18:27;103282.72;;;4.83
78859;BMP280;68210;52.032;4.634;2024-01-27T03:20:27;103279.75;;;4.80
78859;BMP280;68210;52.032;4.634;2024-01-27T03:22:28;103274.59;;;4.79
78859;BMP280;68210;52.032;4.634;2024-01-27T03:24:28;103280.03;;;4.83
78859;BMP280;68210;52.032;4.634;2024-01-27T03:26:28;103281.66;;;4.84
78859;BMP280;68210;52.032;4.634;2024-01-27T03:28:29;103291.31;;;4.81
78859;BMP280;68210;52.032;4.634;2024-01-27T03:30:29;103291.59;;;4.84
78859;BMP280;68210;52.032;4.634;2024-01-27T03:32:30;103277.13;;;4.85
78859;BMP280;68210;52.032;4.634;2024-01-27T03:34:33;103280.66;;;4.90
78859;BMP280;68210;52.032;4.634;2024-01-27T03:36:34;103275.28;;;4.90
78859;BMP280;68210;52.032;4.634;2024-01-27T03:38:34;103284.09;;;4.86
78859;BMP280;68210;52.032;4.634;2024-01-27T03:40:36;103281.94;;;4.83
78859;BMP280;68210;52.032;4.634;2024-01-27T03:42:37;103288.97;;;4.89
78859;BMP280;68210;52.032;4.634;2024-01-27T03:44:37;103290.06;;;4.88
78859;BMP280;68210;52.032;4.634;2024-01-27T03:46:37;103294.13;;;4.95
78859;BMP280;68210;52.032;4.634;2024-01-27T03:48:39;103284.53;;;4.99
78859;BMP280;68210;52.032;4.634;2024-01-27T03:50:39;103280.19;;;4.98
78859;BMP280;68210;52.032;4.634;2024-01-27T03:52:41;103284.31;;;5.06
78859;BMP280;68210;52.032;4.634;2024-01-27T03:54:41;103277.88;;;5.07
78859;BMP280;68210;52.032;4.634;2024-01-27T03:56:41;103287.56;;;5.08
78859;BMP280;68210;52.032;4.634;2024-01-27T03:58:42;103289.69;;;5.06
78859;BMP280;68210;52.032;4.634;2024-01-27T04:00:42;103268.13;;;5.01
78859;BMP280;68210;52.032;4.634;2024-01-27T04:02:42;103283.94;;;4.97
78859;BMP280;68210;52.032;4.634;2024-01-27T04:04:43;103283.44;;;5.00
78859;BMP280;68210;52.032;4.634;2024-01-27T04:06:43;103278.34;;;4.99
78859;BMP280;68210;52.032;4.634;2024-01-27T04:08:46;103279.31;;;4.93
78859;BMP280;68210;52.032;4.634;2024-01-27T04:10:46;103280.84;;;4.84
78859;BMP280;68210;52.032;4.634;2024-01-27T04:12:47;103277.22;;;4.74
78859;BMP280;68210;52.032;4.634;2024-01-27T04:14:48;103298.44;;;4.70
78859;BMP280;68210;52.032;4.634;2024-01-27T04:16:48;103285.22;;;4.69
78859;BMP280;68210;52.032;4.634;2024-01-27T04:18:48;103281.50;;;4.70
78859;BMP280;68210;52.032;4.634;2024-01-27T04:20:49;103292.13;;;4.60
78859;BMP280;68210;52.032;4.634;2024-01-27T04:22:49;103298.50;;;4.54
78859;BMP280;68210;52.032;4.634;2024-01-27T04:24:50;103289.81;;;4.47
78859;BMP280;68210;52.032;4.634;2024-01-27T04:26:50;103301.84;;;4.45
78859;BMP280;68210;52.032;4.634;2024-01-27T04:28:50;103300.25;;;4.44
78859;BMP280;68210;52.032;4.634;2024-01-27T04:30:51;103290.81;;;4.41
78859;BMP280;68210;52.032;4.634;2024-01-27T04:32:51;103288.94;;;4.42
78859;BMP280;68210;52.032;4.634;2024-01-27T04:34:52;103282.44;;;4.38
78859;BMP280;68210;52.032;4.634;2024-01-27T04:36:52;103284.00;;;4.34
78859;BMP280;68210;52.032;4.634;2024-01-27T04:38:53;103278.81;;;4.27
78859;BMP280;68210;52.032;4.634;2024-01-27T04:40:53;103285.13;;;4.38
78859;BMP280;68210;52.032;4.634;2024-01-27T04:42:53;103286.94;;;4.32
78859;BMP280;68210;52.032;4.634;2024-01-27T04:44:54;103278.81;;;4.27
78859;BMP280;68210;52.032;4.634;2024-01-27T04:46:54;103284.63;;;4.20
78859;BMP280;68210;52.032;4.634;2024-01-27T04:48:55;103272.81;;;4.21
78859;BMP280;68210;52.032;4.634;2024-01-27T04:50:55;103278.00;;;4.27
78859;BMP280;68210;52.032;4.634;2024-01-27T04:52:56;103287.59;;;4.23
78859;BMP280;68210;52.032;4.634;2024-01-27T04:54:57;103290.78;;;4.20
78859;BMP280;68210;52.032;4.634;2024-01-27T04:56:58;103283.31;;;4.22
78859;BMP280;68210;52.032;4.634;2024-01-27T04:58:58;103293.97;;;4.17
78859;BMP280;68210;52.032;4.634;2024-01-27T05:00:59;103295.53;;;4.13
78859;BMP280;68210;52.032;4.634;2024-01-27T05:02:59;103296.44;;;4.19
78859;BMP280;68210;52.032;4.634;2024-01-27T05:05:03;103290.88;;;4.25
78859;BMP280;68210;52.032;4.634;2024-01-27T05:07:04;103285.19;;;4.22
78859;BMP280;68210;52.032;4.634;2024-01-27T05:09:05;103283.06;;;4.23
78859;BMP280;68210;52.032;4.634;2024-01-27T05:11:09;103292.31;;;4.32
78859;BMP280;68210;52.032;4.634;2024-01-27T05:13:09;103302.13;;;4.43
78859;BMP280;68210;52.032;4.634;2024-01-27T05:15:10;103300.69;;;4.36
78859;BMP280;68210;52.032;4.634;2024-01-27T05:17:11;103289.19;;;4.40
78859;BMP280;68210;52.032;4.634;2024-01-27T05:19:11;103290.19;;;4.34
78859;BMP280;68210;52.032;4.634;2024-01-27T05:21:12;103286.81;;;4.22
78859;BMP280;68210;52.032;4.634;2024-01-27T05:23:12;103284.69;;;4.24
78859;BMP280;68210;52.032;4.634;2024-01-27T05:25:13;103292.47;;;4.26
78859;BMP280;68210;52.032;4.634;2024-01-27T05:27:13;103301.28;;;4.22
78859;BMP280;68210;52.032;4.634;2024-01-27T05:29:14;103301.88;;;4.23
78859;BMP280;68210;52.032;4.634;2024-01-27T05:31:14;103292.81;;;4.29
78859;BMP280;68210;52.032;4.634;2024-01-27T05:33:15;103292.16;;;4.22
78859;BMP280;68210;52.032;4.634;2024-01-27T05:35:16;103290.06;;;4.24
78859;BMP280;68210;52.032;4.634;2024-01-27T05:37:16;103290.56;;;4.22
78859;BMP280;68210;52.032;4.634;2024-01-27T05:39:17;103291.56;;;4.16
78859;BMP280;68210;52.032;4.634;2024-01-27T05:41:17;103297.22;;;4.19
78859;BMP280;68210;52.032;4.634;2024-01-27T05:43:18;103291.88;;;4.19
78859;BMP280;68210;52.032;4.634;2024-01-27T05:45:18;103296.91;;;4.16
78859;BMP280;68210;52.032;4.634;2024-01-27T05:47:18;103305.53;;;4.18
78859;BMP280;68210;52.032;4.634;2024-01-27T05:49:19;103296.78;;;4.06
78859;BMP280;68210;52.032;4.634;2024-01-27T05:51:20;103301.06;;;4.07
78859;BMP280;68210;52.032;4.634;2024-01-27T05:53:20;103300.53;;;4.05
78859;BMP280;68210;52.032;4.634;2024-01-27T05:55:20;103293.59;;;4.09
78859;BMP280;68210;52.032;4.634;2024-01-27T05:57:21;103298.16;;;4.08
78859;BMP280;68210;52.032;4.634;2024-01-27T05:59:21;103297.16;;;4.14
78859;BMP280;68210;52.032;4.634;2024-01-27T06:01:22;103287.03;;;4.00
78859;BMP280;68210;52.032;4.634;2024-01-27T06:03:22;103289.28;;;4.08
78859;BMP280;68210;52.032;4.634;2024-01-27T06:05:22;103293.34;;;4.10
78859;BMP280;68210;52.032;4.634;2024-01-27T06:07:23;103286.09;;;4.11
78859;BMP280;68210;52.032;4.634;2024-01-27T06:09:23;103286.34;;;4.09
78859;BMP280;68210;52.032;4.634;2024-01-27T06:11:24;103278.22;;;4.04
78859;BMP280;68210;52.032;4.634;2024-01-27T06:13:25;103281.16;;;4.03
78859;BMP280;68210;52.032;4.634;2024-01-27T06:15:25;103279.06;;;4.05
78859;BMP280;68210;52.032;4.634;2024-01-27T06:17:25;103280.25;;;4.14
78859;BMP280;68210;52.032;4.634;2024-01-27T06:19:26;103279.19;;;4.36
78859;BMP280;68210;52.032;4.634;2024-01-27T06:21:26;103282.50;;;4.43
78859;BMP280;68210;52.032;4.634;2024-01-27T06:23:27;103299.75;;;4.47
78859;BMP280;68210;52.032;4.634;2024-01-27T06:25:27;103291.19;;;4.50
78859;BMP280;68210;52.032;4.634;2024-01-27T06:27:28;103297.63;;;4.49
78859;BMP280;68210;52.032;4.634;2024-01-27T06:29:28;103299.91;;;4.19
78859;BMP280;68210;52.032;4.634;2024-01-27T06:31:29;103293.66;;;4.14
78859;BMP280;68210;52.032;4.634;2024-01-27T06:33:30;103300.34;;;4.11
78859;BMP280;68210;52.032;4.634;2024-01-27T06:35:31;103296.53;;;4.07
78859;BMP280;68210;52.032;4.634;2024-01-27T06:37:31;103298.25;;;3.97
78859;BMP280;68210;52.032;4.634;2024-01-27T06:39:31;103299.38;;;4.01
78859;BMP280;68210;52.032;4.634;2024-01-27T06:41:32;103302.94;;;4.06
78859;BMP280;68210;52.032;4.634;2024-01-27T06:43:32;103299.09;;;3.81
78859;BMP280;68210;52.032;4.634;2024-01-27T06:45:32;103308.53;;;3.84
78859;BMP280;68210;52.032;4.634;2024-01-27T06:47:33;103310.13;;;3.85
78859;BMP280;68210;52.032;4.634;2024-01-27T06:49:36;103317.19;;;3.91
78859;BMP280;68210;52.032;4.634;2024-01-27T06:51:37;103310.44;;;3.88
78859;BMP280;68210;52.032;4.634;2024-01-27T06:53:37;103308.34;;;3.90
78859;BMP280;68210;52.032;4.634;2024-01-27T06:55:38;103307.13;;;3.81
78859;BMP280;68210;52.032;4.634;2024-01-27T06:57:38;103316.31;;;3.85
78859;BMP280;68210;52.032;4.634;2024-01-27T06:59:40;103303.69;;;3.86
78859;BMP280;68210;52.032;4.634;2024-01-27T07:01:50;103309.50;;;3.94
78859;BMP280;68210;52.032;4.634;2024-01-27T07:03:50;103300.06;;;3.92
78859;BMP280;68210;52.032;4.634;2024-01-27T07:05:52;103306.53;;;3.95
78859;BMP280;68210;52.032;4.634;2024-01-27T07:07:52;103308.59;;;4.05
78859;BMP280;68210;52.032;4.634;2024-01-27T07:09:54;103306.59;;;4.17
78859;BMP280;68210;52.032;4.634;2024-01-27T07:11:55;103306.59;;;4.17
78859;BMP280;68210;52.032;4.634;2024-01-27T07:13:56;103310.88;;;4.18
78859;BMP280;68210;52.032;4.634;2024-01-27T07:15:56;103312.03;;;4.22
78859;BMP280;68210;52.032;4.634;2024-01-27T07:17:57;103314.34;;;4.13
78859;BMP280;68210;52.032;4.634;2024-01-27T07:19:58;103315.75;;;4.21
78859;BMP280;68210;52.032;4.634;2024-01-27T07:21:58;103314.88;;;4.15
78859;BMP280;68210;52.032;4.634;2024-01-27T07:24:00;103311.16;;;4.16
78859;BMP280;68210;52.032;4.634;2024-01-27T07:26:00;103325.38;;;4.17
78859;BMP280;68210;52.032;4.634;2024-01-27T07:28:03;103319.94;;;4.12
78859;BMP280;68210;52.032;4.634;2024-01-27T07:30:05;103320.25;;;4.15
78859;BMP280;68210;52.032;4.634;2024-01-27T07:32:06;103317.91;;;4.19
78859;BMP280;68210;52.032;4.634;2024-01-27T07:34:09;103324.09;;;4.19
78859;BMP280;68210;52.032;4.634;2024-01-27T07:36:09;103315.56;;;4.06
78859;BMP280;68210;52.032;4.634;2024-01-27T07:38:11;103321.50;;;4.08
78859;BMP280;68210;52.032;4.634;2024-01-27T07:40:12;103312.28;;;4.20
78859;BMP280;68210;52.032;4.634;2024-01-27T07:42:13;103320.09;;;4.22
78859;BMP280;68210;52.032;4.634;2024-01-27T07:44:14;103314.28;;;4.29
78859;BMP280;68210;52.032;4.634;2024-01-27T07:46:14;103318.97;;;4.39
78859;BMP280;68210;52.032;4.634;2024-01-27T07:48:15;103315.19;;;4.56
78859;BMP280;68210;52.032;4.634;2024-01-27T07:50:15;103317.44;;;4.64
78859;BMP280;68210;52.032;4.634;2024-01-27T07:52:16;103311.66;;;4.77
78859;BMP280;68210;52.032;4.634;2024-01-27T07:54:16;103315.00;;;4.83
78859;BMP280;68210;52.032;4.634;2024-01-27T07:56:16;103316.97;;;5.19
78859;BMP280;68210;52.032;4.634;2024-01-27T07:58:17;103310.44;;;5.36
78859;BMP280;68210;52.032;4.634;2024-01-27T08:00:17;103313.91;;;5.63
78859;BMP280;68210;52.032;4.634;2024-01-27T08:02:18;103319.75;;;5.86
78859;BMP280;68210;52.032;4.634;2024-01-27T08:04:18;103320.09;;;5.63
78859;BMP280;68210;52.032;4.634;2024-01-27T08:06:28;103312.16;;;5.78
78859;BMP280;68210;52.032;4.634;2024-01-27T08:08:29;103316.41;;;6.05
78859;BMP280;68210;52.032;4.634;2024-01-27T08:10:30;103313.56;;;6.26
78859;BMP280;68210;52.032;4.634;2024-01-27T08:12:30;103303.38;;;6.33
78859;BMP280;68210;52.032;4.634;2024-01-27T08:14:30;103310.53;;;6.64
78859;BMP280;68210;52.032;4.634;2024-01-27T08:16:31;103304.69;;;6.86
78859;BMP280;68210;52.032;4.634;2024-01-27T08:18:31;103311.78;;;7.22
78859;BMP280;68210;52.032;4.634;2024-01-27T08:20:31;103318.28;;;7.40
78859;BMP280;68210;52.032;4.634;2024-01-27T08:22:33;103324.22;;;7.52
78859;BMP280;68210;52.032;4.634;2024-01-27T08:24:34;103322.09;;;7.64
78859;BMP280;68210;52.032;4.634;2024-01-27T08:26:34;103318.28;;;7.65
78859;BMP280;68210;52.032;4.634;2024-01-27T08:28:35;103322.63;;;7.90
78859;BMP280;68210;52.032;4.634;2024-01-27T08:30:35;103316.41;;;7.85
78859;BMP280;68210;52.032;4.634;2024-01-27T08:32:36;103324.22;;;7.82
78859;BMP280;68210;52.032;4.634;2024-01-27T08:34:36;103321.50;;;8.26
78859;BMP280;68210;52.032;4.634;2024-01-27T08:36:37;103334.94;;;8.50
78859;BMP280;68210;52.032;4.634;2024-01-27T08:38:37;103330.13;;;8.38
78859;BMP280;68210;52.032;4.634;2024-01-27T08:40:38;103331.50;;;8.25
78859;BMP280;68210;52.032;4.634;2024-01-27T08:42:38;103340.41;;;8.31
78859;BMP280;68210;52.032;4.634;2024-01-27T08:44:39;103339.78;;;8.58
78859;BMP280;68210;52.032;4.634;2024-01-27T08:46:40;103332.78;;;8.57
78859;BMP280;68210;52.032;4.634;2024-01-27T08:48:40;103334.38;;;8.63
78859;BMP280;68210;52.032;4.634;2024-01-27T08:50:41;103337.44;;;8.95
78859;BMP280;68210;52.032;4.634;2024-01-27T08:52:41;103335.69;;;9.23
78859;BMP280;68210;52.032;4.634;2024-01-27T08:54:42;103345.34;;;9.34
78859;BMP280;68210;52.032;4.634;2024-01-27T08:56:42;103348.41;;;9.61
78859;BMP280;68210;52.032;4.634;2024-01-27T08:58:45;103336.09;;;9.40
78859;BMP280;68210;52.032;4.634;2024-01-27T09:00:47;103330.50;;;9.27
78859;BMP280;68210;52.032;4.634;2024-01-27T09:02:48;103339.09;;;9.39
78859;BMP280;68210;52.032;4.634;2024-01-27T09:04:48;103331.25;;;9.37
78859;BMP280;68210;52.032;4.634;2024-01-27T09:06:48;103326.56;;;9.80
78859;BMP280;68210;52.032;4.634;2024-01-27T09:08:49;103328.56;;;10.03
78859;BMP280;68210;52.032;4.634;2024-01-27T09:10:49;103328.84;;;10.01
78859;BMP280;68210;52.032;4.634;2024-01-27T09:12:50;103332.22;;;10.17
78859;BMP280;68210;52.032;4.634;2024-01-27T09:14:51;103341.53;;;10.34
78859;BMP280;68210;52.032;4.634;2024-01-27T09:16:54;103343.78;;;10.50
78859;BMP280;68210;52.032;4.634;2024-01-27T09:18:54;103344.31;;;10.52
78859;BMP280;68210;52.032;4.634;2024-01-27T09:20:54;103343.50;;;10.75
78859;BMP280;68210;52.032;4.634;2024-01-27T09:22:56;103340.63;;;10.66
78859;BMP280;68210;52.032;4.634;2024-01-27T09:24:56;103344.25;;;10.57
78859;BMP280;68210;52.032;4.634;2024-01-27T09:26:57;103351.03;;;11.01
78859;BMP280;68210;52.032;4.634;2024-01-27T09:28:57;103347.81;;;10.99
78859;BMP280;68210;52.032;4.634;2024-01-27T09:30:57;103346.97;;;10.98
78859;BMP280;68210;52.032;4.634;2024-01-27T09:32:58;103356.22;;;11.21
78859;BMP280;68210;52.032;4.634;2024-01-27T09:34:58;103357.41;;;11.51
78859;BMP280;68210;52.032;4.634;2024-01-27T09:36:59;103355.84;;;11.63
78859;BMP280;68210;52.032;4.634;2024-01-27T09:39:00;103357.47;;;11.46
78859;BMP280;68210;52.032;4.634;2024-01-27T09:41:00;103364.81;;;11.46
78859;BMP280;68210;52.032;4.634;2024-01-27T09:43:01;103362.31;;;11.49
78859;BMP280;68210;52.032;4.634;2024-01-27T09:45:01;103363.22;;;11.94
78859;BMP280;68210;52.032;4.634;2024-01-27T09:47:02;103356.53;;;12.18
78859;BMP280;68210;52.032;4.634;2024-01-27T09:49:03;103364.13;;;12.48
78859;BMP280;68210;52.032;4.634;2024-01-27T09:51:05;103375.75;;;12.09
78859;BMP280;68210;52.032;4.634;2024-01-27T09:53:08;103372.22;;;12.53
78859;BMP280;68210;52.032;4.634;2024-01-27T09:55:10;103365.66;;;12.41
78859;BMP280;68210;52.032;4.634;2024-01-27T09:57:11;103370.19;;;12.45
78859;BMP280;68210;52.032;4.634;2024-01-27T09:59:12;103373.44;;;12.74
78859;BMP280;68210;52.032;4.634;2024-01-27T10:01:17;103381.59;;;12.74
78859;BMP280;68210;52.032;4.634;2024-01-27T10:03:18;103371.72;;;12.77
78859;BMP280;68210;52.032;4.634;2024-01-27T10:05:20;103373.44;;;12.60
78859;BMP280;68210;52.032;4.634;2024-01-27T10:07:21;103375.06;;;13.01
78859;BMP280;68210;52.032;4.634;2024-01-27T10:09:23;103377.13;;;12.51
78859;BMP280;68210;52.032;4.634;2024-01-27T10:11:23;103382.69;;;12.73
78859;BMP280;68210;52.032;4.634;2024-01-27T10:13:25;103375.53;;;12.63
78859;BMP280;68210;52.032;4.634;2024-01-27T10:15:28;103370.50;;;12.44
78859;BMP280;68210;52.032;4.634;2024-01-27T10:17:28;103381.69;;;12.55
78859;BMP280;68210;52.032;4.634;2024-01-27T10:19:34;103380.28;;;12.58
78859;BMP280;68210;52.032;4.634;2024-01-27T10:21:36;103383.69;;;12.50
78859;BMP280;68210;52.032;4.634;2024-01-27T10:23:39;103387.09;;;12.42
78859;BMP280;68210;52.032;4.634;2024-01-27T10:25:39;103393.59;;;12.14
78859;BMP280;68210;52.032;4.634;2024-01-27T10:27:41;103391.66;;;11.83
78859;BMP280;68210;52.032;4.634;2024-01-27T10:29:51;103395.38;;;11.74
78859;BMP280;68210;52.032;4.634;2024-01-27T10:31:52;103396.16;;;11.93
78859;BMP280;68210;52.032;4.634;2024-01-27T10:33:53;103386.25;;;11.65
78859;BMP280;68210;52.032;4.634;2024-01-27T10:35:57;103382.16;;;11.50
78859;BMP280;68210;52.032;4.634;2024-01-27T10:37:59;103382.31;;;11.58
78859;BMP280;68210;52.032;4.634;2024-01-27T10:40:03;103383.53;;;11.65
78859;BMP280;68210;52.032;4.634;2024-01-27T10:42:05;103389.19;;;11.51
78859;BMP280;68210;52.032;4.634;2024-01-27T10:44:06;103392.28;;;11.62
78859;BMP280;68210;52.032;4.634;2024-01-27T10:46:08;103385.16;;;11.66
78859;BMP280;68210;52.032;4.634;2024-01-27T10:48:10;103388.47;;;11.63
78859;BMP280;68210;52.032;4.634;2024-01-27T10:50:14;103398.16;;;11.69
78859;BMP280;68210;52.032;4.634;2024-01-27T10:52:17;103401.28;;;11.40
78859;BMP280;68210;52.032;4.634;2024-01-27T10:54:25;103404.47;;;11.83
78859;BMP280;68210;52.032;4.634;2024-01-27T10:56:27;103392.72;;;11.69
78859;BMP280;68210;52.032;4.634;2024-01-27T10:58:29;103393.03;;;11.50
78859;BMP280;68210;52.032;4.634;2024-01-27T11:00:31;103392.41;;;11.71
78859;BMP280;68210;52.032;4.634;2024-01-27T11:02:34;103391.00;;;11.37
78859;BMP280;68210;52.032;4.634;2024-01-27T11:04:35;103386.91;;;11.57
78859;BMP280;68210;52.032;4.634;2024-01-27T11:06:37;103381.13;;;11.46
78859;BMP280;68210;52.032;4.634;2024-01-27T11:08:39;103386.50;;;11.69
78859;BMP280;68210;52.032;4.634;2024-01-27T11:10:39;103378.47;;;11.77
78859;BMP280;68210;52.032;4.634;2024-01-27T11:12:40;103382.50;;;11.43
78859;BMP280;68210;52.032;4.634;2024-01-27T11:14:41;103368.75;;;11.35
78859;BMP280;68210;52.032;4.634;2024-01-27T11:16:41;103370.66;;;11.34
78859;BMP280;68210;52.032;4.634;2024-01-27T11:18:48;103369.13;;;11.28
78859;BMP280;68210;52.032;4.634;2024-01-27T11:20:48;103372.94;;;11.27
78859;BMP280;68210;52.032;4.634;2024-01-27T11:22:48;103373.63;;;10.96
78859;BMP280;68210;52.032;4.634;2024-01-27T11:24:49;103368.38;;;10.82
78859;BMP280;68210;52.032;4.634;2024-01-27T11:27:02;103375.66;;;10.63
78859;BMP280;68210;52.032;4.634;2024-01-27T11:29:06;103385.97;;;11.07
78859;BMP280;68210;52.032;4.634;2024-01-27T11:31:19;103374.34;;;10.84
78859;BMP280;68210;52.032;4.634;2024-01-27T11:33:19;103379.34;;;10.49
78859;BMP280;68210;52.032;4.634;2024-01-27T11:35:20;103372.53;;;10.51